< < Back
Terminal Aerodrome Forecast


Current Version              Previous Versions:   1  2  3  4  5  6  7  8  9  

Terminal Aerodrome Forecast

880
FTUS42 KILM 281738
TAFILM
TAF
KILM 281738Z 2818/2918 03010KT P6SM FEW040
     FM282100 06010KT P6SM SCT040 SCT100
     FM290200 04005KT P6SM SCT150 SCT250
     FM291300 03010KT P6SM SCT030 BKN250=

Latest METAR

512
SAUS70 KWBC 290000 RRD
MTRILM
METAR KILM 282353Z 03005KT 10SM BKN040 25/20 A3012 RMK AO2 SLP200
T02500200 10300 20250 53006


USA.gov is the U.S. government's official web portal to all federal, state and local government web resources and services.